Time;durP1;ratioP1;P1;durP2;ratioP2;P2;SDS_P1;SDS_P2;PMS_P1;PMS_P2;Temp;Humidity;BMP_temperature;BMP_pressure;BME280_temperature;BME280_humidity;BME280_pressure;Samples;Min_cycle;Max_cycle;Signal;HPM_P1;HPM_P2
2021/09/30 00:00:41;;;;;;;4.78;1.67;;;18.20;63.80;;;;;;5039722;28;20065;-73
2021/09/30 00:03:09;;;;;;;8.32;1.92;;;18.20;64.00;;;;;;5037735;28;20565;-72
2021/09/30 00:05:37;;;;;;;5.75;1.50;;;18.10;64.20;;;;;;5038141;28;20013;-73
2021/09/30 00:08:07;;;;;;;4.38;1.13;;;18.10;64.20;;;;;;5039790;28;20503;-73
2021/09/30 00:10:33;;;;;;;2.25;1.10;;;18.10;64.50;;;;;;5040425;28;20104;-73
2021/09/30 00:13:05;;;;;;;3.58;1.63;;;18.10;64.30;;;;;;5042360;28;20116;-73
2021/09/30 00:15:51;;;;;;;4.18;1.13;;;18.10;64.40;;;;;;5042936;28;20566;-73
2021/09/30 00:35:16;;;;;;;2.58;1.23;;;18.00;64.50;;;;;;5041072;28;20211;-72
2021/09/30 00:53:47;;;;;;;5.20;1.98;;;17.90;64.70;;;;;;5039870;28;20044;-73
2021/09/30 02:19:52;;;;;;;5.35;1.95;;;17.40;66.50;;;;;;5039204;28;21467;-72
2021/09/30 03:00:35;;;;;;;10.05;1.80;;;17.20;68.10;;;;;;5040608;28;20048;-72
2021/09/30 03:03:03;;;;;;;4.65;1.70;;;17.20;68.30;;;;;;5037918;28;20440;-73
2021/09/30 03:05:31;;;;;;;10.57;1.67;;;17.10;68.20;;;;;;5036866;28;20022;-72
2021/09/30 03:07:59;;;;;;;8.80;1.73;;;17.10;68.30;;;;;;5036127;28;20013;-72
2021/09/30 03:10:26;;;;;;;4.25;1.23;;;17.10;68.40;;;;;;5042343;28;20095;-72
2021/09/30 03:12:56;;;;;;;9.30;1.75;;;17.10;68.50;;;;;;5036353;28;20021;-72
2021/09/30 03:17:59;;;;;;;37.65;24.95;;;17.00;68.60;;;;;;5035434;28;20087;-73
2021/09/30 03:20:41;;;;;;;13.82;8.07;;;17.00;68.80;;;;;;5036476;28;20401;-72
2021/09/30 03:23:14;;;;;;;8.52;2.33;;;17.00;68.80;;;;;;5040207;28;20891;-73
2021/09/30 03:25:45;;;;;;;9.60;1.85;;;17.00;68.90;;;;;;5038535;28;20028;-73
2021/09/30 03:28:13;;;;;;;7.47;1.88;;;17.00;69.10;;;;;;5040328;28;20010;-72
2021/09/30 03:30:41;;;;;;;15.13;4.13;;;16.90;69.30;;;;;;5037901;28;20088;-72
2021/09/30 03:33:47;;;;;;;5.35;1.80;;;16.90;69.60;;;;;;5037766;28;20001;-72
2021/09/30 03:36:53;;;;;;;10.55;2.05;;;16.90;69.90;;;;;;5040540;28;20025;-72
2021/09/30 03:39:25;;;;;;;9.07;2.10;;;16.90;70.10;;;;;;5041370;28;20020;-73
2021/09/30 03:41:53;;;;;;;6.80;2.05;;;16.90;70.10;;;;;;5039022;28;20037;-73
2021/09/30 03:44:20;;;;;;;6.97;1.75;;;16.90;70.00;;;;;;5040410;28;20029;-72
2021/09/30 03:46:51;;;;;;;9.38;2.17;;;16.80;70.00;;;;;;5037971;28;20124;-71
2021/09/30 03:49:26;;;;;;;7.82;2.20;;;16.80;70.00;;;;;;5043005;28;20109;-73
2021/09/30 03:52:08;;;;;;;4.97;2.28;;;16.70;70.00;;;;;;5042221;28;20013;-72
2021/09/30 03:57:25;;;;;;;9.02;2.10;;;16.60;70.20;;;;;;5041172;28;20040;-74
2021/09/30 03:59:52;;;;;;;11.43;2.30;;;16.60;70.30;;;;;;5042152;28;20045;-74
2021/09/30 04:02:18;;;;;;;7.68;2.33;;;16.50;70.30;;;;;;5043265;28;20029;-73
2021/09/30 04:04:46;;;;;;;6.97;2.58;;;16.50;70.40;;;;;;5040338;28;20021;-73
2021/09/30 04:07:13;;;;;;;11.02;2.50;;;16.50;70.60;;;;;;5040340;28;20013;-71
2021/09/30 04:09:40;;;;;;;9.35;4.70;;;16.50;70.70;;;;;;5040303;28;20114;-71
2021/09/30 04:12:12;;;;;;;33.90;25.13;;;16.60;71.10;;;;;;5041162;28;20024;-72
2021/09/30 04:14:39;;;;;;;12.60;5.70;;;16.60;70.80;;;;;;5041422;28;20014;-72
2021/09/30 04:17:06;;;;;;;9.77;3.38;;;16.60;70.60;;;;;;5042617;28;20060;-72
2021/09/30 04:19:33;;;;;;;5.70;1.92;;;16.60;70.60;;;;;;5042718;28;20027;-73
2021/09/30 04:22:00;;;;;;;8.00;2.92;;;16.50;70.60;;;;;;5038407;28;20033;-74
2021/09/30 04:24:26;;;;;;;9.77;1.83;;;16.50;70.70;;;;;;5040300;28;20024;-72
2021/09/30 04:26:55;;;;;;;5.60;2.70;;;16.50;70.90;;;;;;5040810;28;20028;-73
2021/09/30 04:29:22;;;;;;;5.40;2.30;;;16.40;71.00;;;;;;5036510;28;20021;-73
2021/09/30 04:31:49;;;;;;;10.02;1.75;;;16.40;71.10;;;;;;5040206;28;20025;-74
2021/09/30 04:34:16;;;;;;;8.68;2.10;;;16.40;71.20;;;;;;5038745;28;20104;-72
2021/09/30 04:36:43;;;;;;;9.65;2.53;;;16.30;71.30;;;;;;5038845;28;20437;-72
2021/09/30 04:39:10;;;;;;;5.45;1.70;;;16.30;71.40;;;;;;5040081;28;20028;-73
2021/09/30 04:41:37;;;;;;;10.98;5.60;;;16.30;71.80;;;;;;5043292;28;20067;-73
2021/09/30 04:44:04;;;;;;;27.58;18.98;;;16.30;71.90;;;;;;5040065;28;20029;-73
2021/09/30 04:46:30;;;;;;;18.90;8.45;;;16.40;72.10;;;;;;5043318;28;20021;-76
2021/09/30 04:48:57;;;;;;;16.60;6.68;;;16.40;72.00;;;;;;5042465;28;20159;-76
2021/09/30 04:51:23;;;;;;;9.20;3.33;;;16.40;72.10;;;;;;5038483;28;20027;-74
2021/09/30 04:53:50;;;;;;;6.13;1.90;;;16.40;72.20;;;;;;5041582;28;20056;-74
2021/09/30 04:56:16;;;;;;;5.85;1.98;;;16.40;72.30;;;;;;5038750;28;20392;-74
2021/09/30 04:58:43;;;;;;;3.88;1.73;;;16.40;72.30;;;;;;5039850;28;20100;-73
2021/09/30 05:01:09;;;;;;;7.63;1.70;;;16.40;72.40;;;;;;5040178;28;20063;-74
2021/09/30 05:04:15;;;;;;;8.38;1.70;;;16.50;72.30;;;;;;5037841;28;20029;-73
2021/09/30 05:07:22;;;;;;;7.93;2.05;;;16.50;72.30;;;;;;5034581;28;20143;-74
2021/09/30 05:10:34;;;;;;;8.05;1.85;;;16.50;72.30;;;;;;5035411;28;20029;-74
2021/09/30 05:13:43;;;;;;;7.20;1.67;;;16.50;72.40;;;;;;5033983;28;20021;-74
2021/09/30 05:16:31;;;;;;;3.55;1.10;;;16.60;72.60;;;;;;5040941;28;20020;-74
2021/09/30 05:18:57;;;;;;;3.83;1.08;;;16.70;72.40;;;;;;5040781;28;20030;-74
2021/09/30 05:21:24;;;;;;;5.72;1.80;;;16.70;72.20;;;;;;5038820;28;20041;-74
2021/09/30 05:23:51;;;;;;;6.15;2.05;;;16.80;72.20;;;;;;5043604;28;20784;-74
2021/09/30 05:26:18;;;;;;;5.80;1.50;;;16.80;72.20;;;;;;5039514;28;20392;-74
2021/09/30 05:28:45;;;;;;;2.67;1.27;;;16.80;72.20;;;;;;5040293;28;20029;-74
2021/09/30 05:31:11;;;;;;;3.80;1.67;;;16.80;72.10;;;;;;5039563;28;20021;-74
2021/09/30 05:33:37;;;;;;;8.15;1.60;;;16.80;71.90;;;;;;5040978;28;20468;-74
2021/09/30 05:36:04;;;;;;;8.02;1.40;;;16.90;71.80;;;;;;5042269;28;20064;-75
2021/09/30 05:38:31;;;;;;;3.85;1.73;;;16.90;71.80;;;;;;5041737;28;20017;-74
2021/09/30 05:40:57;;;;;;;2.95;1.48;;;17.00;71.90;;;;;;5040382;28;20021;-74
2021/09/30 05:43:36;;;;;;;3.88;1.50;;;17.00;71.90;;;;;;5041817;28;20017;-74
2021/09/30 05:46:03;;;;;;;5.68;1.95;;;17.00;71.70;;;;;;5041985;28;20021;-74
2021/09/30 05:48:30;;;;;;;5.30;1.40;;;17.10;71.60;;;;;;5039267;28;20021;-74
2021/09/30 05:50:57;;;;;;;6.28;1.00;;;17.10;71.20;;;;;;5041721;28;20384;-74
2021/09/30 05:53:25;;;;;;;6.20;1.45;;;17.20;70.80;;;;;;5037188;28;20014;-74
2021/09/30 05:55:52;;;;;;;3.72;1.60;;;17.20;70.80;;;;;;5039066;28;20033;-73
2021/09/30 05:58:19;;;;;;;5.22;1.65;;;17.20;70.60;;;;;;5041857;28;20017;-74
2021/09/30 06:12:09;;;;;;;5.13;1.50;;;17.50;70.20;;;;;;5010123;28;20268;-74
2021/09/30 06:14:39;;;;;;;3.67;1.55;;;17.50;69.10;;;;;;5039643;28;20025;-74
2021/09/30 06:17:06;;;;;;;7.00;2.13;;;17.50;68.80;;;;;;5038955;28;20055;-74
2021/09/30 06:19:33;;;;;;;10.73;2.42;;;17.60;68.90;;;;;;5038278;28;20646;-74
2021/09/30 06:22:04;;;;;;;5.95;1.80;;;17.60;68.90;;;;;;5038812;28;20028;-74
2021/09/30 06:24:30;;;;;;;6.82;2.08;;;17.70;69.10;;;;;;5040293;28;20080;-73
2021/09/30 06:26:57;;;;;;;5.55;1.40;;;17.70;69.00;;;;;;5039392;28;20031;-74
2021/09/30 06:29:23;;;;;;;2.97;1.27;;;17.80;68.90;;;;;;5040617;28;20035;-74
2021/09/30 06:31:50;;;;;;;4.63;1.42;;;17.80;68.70;;;;;;5041426;28;20021;-73
2021/09/30 06:34:16;;;;;;;4.78;2.38;;;17.80;68.30;;;;;;5038156;28;20468;-73
2021/09/30 06:36:43;;;;;;;6.80;1.70;;;17.90;68.20;;;;;;5037299;28;20025;-74
2021/09/30 06:39:09;;;;;;;5.45;1.30;;;17.90;68.00;;;;;;5036459;28;20121;-73
2021/09/30 06:41:36;;;;;;;7.35;1.95;;;18.00;67.60;;;;;;5042446;28;20575;-74
2021/09/30 06:44:02;;;;;;;4.03;2.00;;;18.00;67.30;;;;;;5038036;28;20476;-73
2021/09/30 06:46:29;;;;;;;8.70;1.70;;;18.10;67.20;;;;;;5041134;28;20384;-74
2021/09/30 06:48:55;;;;;;;4.80;1.55;;;18.10;67.40;;;;;;5036556;28;20500;-73
2021/09/30 06:51:22;;;;;;;3.42;1.60;;;18.10;67.00;;;;;;5038476;28;20533;-73
2021/09/30 06:53:48;;;;;;;7.22;2.40;;;18.20;67.00;;;;;;5037023;28;20021;-73
2021/09/30 06:56:18;;;;;;;3.75;1.40;;;18.20;66.70;;;;;;5041750;28;20013;-73
2021/09/30 06:58:46;;;;;;;4.70;1.42;;;18.30;66.50;;;;;;5040011;28;20009;-73
2021/09/30 07:01:16;;;;;;;8.13;2.33;;;18.30;66.20;;;;;;5036774;28;20071;-73
2021/09/30 07:03:43;;;;;;;8.85;3.35;;;18.40;66.40;;;;;;5037874;28;20029;-73
2021/09/30 07:06:12;;;;;;;7.95;1.95;;;18.50;66.20;;;;;;5040467;28;20048;-73
2021/09/30 07:08:39;;;;;;;5.95;2.75;;;18.50;65.80;;;;;;5039307;28;20071;-73
2021/09/30 07:11:06;;;;;;;6.70;2.88;;;18.60;65.40;;;;;;5039102;28;20491;-73
2021/09/30 07:13:32;;;;;;;5.78;2.88;;;18.60;65.40;;;;;;5036672;28;20028;-73
2021/09/30 07:15:59;;;;;;;6.30;1.95;;;18.70;65.60;;;;;;5039192;28;21001;-73
2021/09/30 07:18:25;;;;;;;7.88;2.30;;;18.70;65.10;;;;;;5035082;28;20018;-73
2021/09/30 07:20:57;;;;;;;5.82;1.95;;;18.80;64.80;;;;;;5037321;28;20558;-73
2021/09/30 07:23:24;;;;;;;8.00;1.85;;;18.80;64.60;;;;;;5042742;28;20159;-73
2021/09/30 07:25:51;;;;;;;8.77;2.38;;;18.90;64.60;;;;;;5041735;28;20537;-73
2021/09/30 07:28:19;;;;;;;4.80;2.05;;;19.00;64.50;;;;;;5043612;28;20067;-73
2021/09/30 07:30:47;;;;;;;7.93;2.20;;;19.10;64.30;;;;;;5044758;28;20138;-73
2021/09/30 07:33:14;;;;;;;13.35;2.63;;;19.10;64.30;;;;;;5042460;28;20100;-73
2021/09/30 07:35:40;;;;;;;6.13;1.50;;;19.20;63.70;;;;;;5039642;28;20385;-73
2021/09/30 07:38:07;;;;;;;8.23;1.70;;;19.30;63.10;;;;;;5042994;28;20005;-73
2021/09/30 07:40:34;;;;;;;6.10;2.35;;;19.40;63.00;;;;;;5042291;28;20029;-73
2021/09/30 07:43:00;;;;;;;3.40;1.40;;;19.40;62.40;;;;;;5040465;28;20033;-73
2021/09/30 07:45:27;;;;;;;5.72;2.63;;;19.50;62.10;;;;;;5043762;28;20016;-73
2021/09/30 07:47:54;;;;;;;4.93;1.50;;;19.50;61.60;;;;;;5043903;28;20014;-73
2021/09/30 07:50:20;;;;;;;4.65;1.42;;;19.60;61.40;;;;;;5044788;28;20027;-73
2021/09/30 07:52:47;;;;;;;10.77;1.90;;;19.70;61.30;;;;;;5038150;28;20187;-73
2021/09/30 07:55:13;;;;;;;4.72;1.35;;;19.80;60.80;;;;;;5044137;28;20056;-73
2021/09/30 07:57:40;;;;;;;3.92;1.85;;;19.90;60.30;;;;;;5041250;28;20132;-73
2021/09/30 08:00:08;;;;;;;7.97;1.98;;;20.00;59.50;;;;;;5044324;28;20047;-73
2021/09/30 08:02:35;;;;;;;4.32;1.17;;;20.10;59.30;;;;;;5041627;28;20029;-73
2021/09/30 08:05:01;;;;;;;4.80;1.70;;;20.10;58.90;;;;;;5043413;28;20500;-72
2021/09/30 08:07:28;;;;;;;7.47;1.77;;;20.20;58.70;;;;;;5044278;28;20024;-73
2021/09/30 08:09:54;;;;;;;6.57;1.58;;;20.30;58.40;;;;;;5039270;28;20021;-72
2021/09/30 08:12:21;;;;;;;5.30;1.88;;;20.30;57.90;;;;;;5038648;28;20029;-72
2021/09/30 08:14:47;;;;;;;7.32;1.27;;;20.40;57.70;;;;;;5042944;28;20013;-72
2021/09/30 08:17:14;;;;;;;4.93;2.47;;;20.50;55.90;;;;;;5046041;28;20021;-73
2021/09/30 08:19:40;;;;;;;6.45;2.00;;;20.50;55.80;;;;;;5036422;28;20032;-72
2021/09/30 08:22:07;;;;;;;6.55;1.13;;;20.60;55.90;;;;;;5042304;28;20029;-72
2021/09/30 08:24:33;;;;;;;5.70;1.27;;;20.70;55.90;;;;;;5043111;28;20024;-72
2021/09/30 08:27:00;;;;;;;6.05;1.05;;;20.80;55.50;;;;;;5042947;28;20022;-72
2021/09/30 08:29:27;;;;;;;5.10;0.95;;;20.90;55.50;;;;;;5044087;28;20057;-72
2021/09/30 08:31:54;;;;;;;4.20;0.95;;;21.00;54.90;;;;;;5040208;28;20025;-72
2021/09/30 08:34:21;;;;;;;6.63;1.10;;;21.10;54.10;;;;;;5041297;28;20476;-72
2021/09/30 08:36:47;;;;;;;2.55;1.00;;;21.20;53.60;;;;;;5038903;28;20564;-72
2021/09/30 08:39:13;;;;;;;3.78;1.00;;;21.20;53.50;;;;;;5039580;28;20021;-72
2021/09/30 08:41:40;;;;;;;3.63;1.20;;;21.30;54.00;;;;;;5043277;28;20075;-73
2021/09/30 08:44:07;;;;;;;6.18;1.20;;;21.40;53.90;;;;;;5039919;28;20503;-73
2021/09/30 08:46:35;;;;;;;3.35;1.30;;;21.50;53.60;;;;;;5044962;28;20021;-74
2021/09/30 08:49:02;;;;;;;2.25;1.50;;;21.60;52.80;;;;;;5040607;28;20017;-72
2021/09/30 08:51:29;;;;;;;7.28;1.20;;;21.70;51.90;;;;;;5041428;28;20021;-73
2021/09/30 08:53:56;;;;;;;2.25;1.20;;;21.80;52.10;;;;;;5041845;28;20029;-73
2021/09/30 08:56:22;;;;;;;2.85;1.05;;;21.90;51.10;;;;;;5040787;28;20061;-73
2021/09/30 08:58:51;;;;;;;3.20;1.10;;;22.00;50.70;;;;;;5041948;28;20033;-73
2021/09/30 09:01:18;;;;;;;4.22;1.10;;;22.00;50.50;;;;;;5042268;28;20017;-72
2021/09/30 09:03:49;;;;;;;5.80;1.33;;;22.00;50.10;;;;;;5039236;28;20016;-72
2021/09/30 09:06:33;;;;;;;7.82;1.63;;;22.00;50.50;;;;;;5039297;28;20040;-72
2021/09/30 09:09:30;;;;;;;2.67;1.50;;;22.10;50.70;;;;;;5041933;28;20028;-72
2021/09/30 09:12:09;;;;;;;5.07;1.15;;;22.10;50.30;;;;;;5041853;28;20147;-72
2021/09/30 09:14:39;;;;;;;4.10;1.13;;;22.30;50.30;;;;;;5042026;28;20125;-72
2021/09/30 09:17:24;;;;;;;5.80;1.42;;;22.40;50.00;;;;;;5044465;28;20017;-72
2021/09/30 09:19:53;;;;;;;2.17;1.23;;;22.40;49.70;;;;;;5038302;28;20021;-73
2021/09/30 09:22:30;;;;;;;4.88;1.63;;;22.50;49.60;;;;;;5039967;28;20388;-73
2021/09/30 09:25:13;;;;;;;4.38;1.20;;;22.60;49.80;;;;;;5040328;28;20025;-73
2021/09/30 09:27:54;;;;;;;4.10;1.70;;;22.60;48.50;;;;;;5039641;28;20361;-73
2021/09/30 09:30:41;;;;;;;5.13;1.33;;;22.60;48.80;;;;;;5042121;28;20818;-73
2021/09/30 09:33:26;;;;;;;4.00;1.45;;;22.60;48.80;;;;;;5040581;28;20070;-73
2021/09/30 09:36:09;;;;;;;5.55;1.40;;;22.60;48.90;;;;;;5043174;28;20021;-73
2021/09/30 09:38:54;;;;;;;3.22;1.23;;;22.60;48.80;;;;;;5039996;28;20114;-73
2021/09/30 09:41:26;;;;;;;4.50;1.10;;;22.70;48.00;;;;;;5042353;28;20048;-73
2021/09/30 09:43:55;;;;;;;2.78;1.05;;;22.70;48.30;;;;;;5042104;28;20029;-72
2021/09/30 09:46:27;;;;;;;2.53;1.00;;;22.90;48.50;;;;;;5038628;28;20071;-72
2021/09/30 09:49:05;;;;;;;3.35;0.88;;;23.00;47.80;;;;;;5039776;28;20020;-73
2021/09/30 09:51:41;;;;;;;5.35;1.48;;;23.10;48.00;;;;;;5037184;28;20033;-72
2021/09/30 09:54:16;;;;;;;3.40;1.27;;;23.20;47.80;;;;;;5043156;28;20036;-72
2021/09/30 09:56:43;;;;;;;;;;;23.30;47.20;;;;;;5038307;28;20025;-71
2021/09/30 09:59:09;;;;;;;3.33;1.20;;;23.40;47.40;;;;;;5044061;28;20382;-72
2021/09/30 10:01:44;;;;;;;4.50;1.02;;;23.40;47.80;;;;;;5036593;28;20481;-72
2021/09/30 10:04:13;;;;;;;3.85;1.17;;;23.60;48.10;;;;;;5044318;28;20052;-72
2021/09/30 10:06:40;;;;;;;2.75;1.10;;;23.60;47.60;;;;;;5037901;28;20484;-72
2021/09/30 10:09:11;;;;;;;5.05;1.20;;;23.70;47.20;;;;;;5041968;28;20446;-72
2021/09/30 10:11:37;;;;;;;3.25;1.15;;;23.70;46.10;;;;;;5039472;28;20027;-72
2021/09/30 10:14:06;;;;;;;4.95;1.90;;;23.80;46.50;;;;;;5042341;28;20052;-72
2021/09/30 10:16:37;;;;;;;6.82;1.27;;;23.90;46.10;;;;;;5040587;28;20024;-72
2021/09/30 10:19:09;;;;;;;7.32;1.30;;;24.00;45.70;;;;;;5036391;28;20044;-73
2021/09/30 10:21:37;;;;;;;4.15;1.50;;;24.10;45.20;;;;;;5041520;28;20036;-72
2021/09/30 10:24:12;;;;;;;11.65;2.45;;;24.10;45.10;;;;;;5037677;28;20029;-73
2021/09/30 10:27:02;;;;;;;8.85;1.30;;;24.30;45.20;;;;;;5038711;28;20100;-73
2021/09/30 10:29:46;;;;;;;5.85;1.75;;;24.40;45.50;;;;;;5042573;28;20031;-73
2021/09/30 10:32:17;;;;;;;5.85;1.17;;;24.40;45.70;;;;;;5040753;28;20095;-73
2021/09/30 10:34:47;;;;;;;5.88;1.20;;;24.50;45.40;;;;;;5040625;28;20510;-73
2021/09/30 10:37:18;;;;;;;4.47;1.40;;;24.60;45.60;;;;;;5041305;28;20017;-73
2021/09/30 10:40:05;;;;;;;2.63;0.80;;;24.70;46.00;;;;;;5039388;28;20480;-72
2021/09/30 10:42:42;;;;;;;6.68;1.67;;;24.70;46.10;;;;;;5040877;28;20510;-72
2021/09/30 10:45:14;;;;;;;5.75;1.55;;;24.70;46.00;;;;;;5040911;28;20020;-73
2021/09/30 10:47:41;;;;;;;2.92;1.10;;;24.80;45.90;;;;;;5040751;28;20029;-73
2021/09/30 10:50:09;;;;;;;10.43;1.40;;;24.80;45.50;;;;;;5043357;28;20031;-73
2021/09/30 10:52:55;;;;;;;4.05;1.23;;;24.90;44.50;;;;;;5041975;28;20028;-73
2021/09/30 10:55:24;;;;;;;4.57;1.25;;;24.90;44.60;;;;;;5039471;28;20017;-73
2021/09/30 10:57:53;;;;;;;4.72;1.13;;;25.00;44.60;;;;;;5043874;28;20730;-73
2021/09/30 11:00:19;;;;;;;2.65;1.63;;;25.10;44.70;;;;;;5044140;28;20120;-72
2021/09/30 11:03:01;;;;;;;4.40;1.40;;;25.20;44.50;;;;;;5043906;28;20505;-73
2021/09/30 11:05:29;;;;;;;2.22;0.88;;;25.20;44.50;;;;;;5044157;28;20025;-73
2021/09/30 11:08:17;;;;;;;3.58;1.38;;;25.30;44.40;;;;;;5044309;28;20032;-73
2021/09/30 11:11:05;;;;;;;4.22;1.40;;;25.30;44.30;;;;;;5039606;28;20018;-73
2021/09/30 11:13:59;;;;;;;3.47;1.60;;;25.40;44.50;;;;;;5044855;28;20028;-73
2021/09/30 11:16:47;;;;;;;2.70;1.45;;;25.40;44.20;;;;;;5024753;28;20086;-73
2021/09/30 11:19:28;;;;;;;4.43;1.58;;;25.50;44.20;;;;;;5042559;28;20100;-73
2021/09/30 11:21:57;;;;;;;3.20;2.13;;;25.50;44.10;;;;;;5046062;28;20033;-73
2021/09/30 11:24:28;;;;;;;3.33;1.08;;;25.50;44.20;;;;;;5041927;28;20017;-73
2021/09/30 11:26:54;;;;;;;3.70;1.00;;;25.60;44.30;;;;;;5042784;28;20025;-73
2021/09/30 11:29:26;;;;;;;8.45;1.55;;;25.70;44.20;;;;;;5042927;28;20021;-73
2021/09/30 11:31:59;;;;;;;5.80;1.60;;;25.80;43.20;;;;;;5044888;28;20100;-73
2021/09/30 11:34:27;;;;;;;2.55;1.23;;;25.90;43.70;;;;;;5044114;28;20494;-73
2021/09/30 11:36:55;;;;;;;2.30;1.33;;;25.90;43.80;;;;;;5045887;28;20610;-73
2021/09/30 11:39:29;;;;;;;3.40;0.80;;;25.90;43.00;;;;;;5046719;28;20010;-73
2021/09/30 11:41:56;;;;;;;4.33;0.93;;;26.00;42.60;;;;;;5043637;28;20030;-73
2021/09/30 11:44:23;;;;;;;4.78;1.02;;;26.10;42.90;;;;;;5046113;28;20282;-73
2021/09/30 11:46:54;;;;;;;1.52;0.90;;;26.10;42.60;;;;;;5056043;28;20128;-73
2021/09/30 11:49:21;;;;;;;4.65;1.23;;;26.20;42.10;;;;;;5042989;28;20467;-72
2021/09/30 11:51:50;;;;;;;3.05;2.05;;;26.20;42.00;;;;;;5040578;28;20029;-73
2021/09/30 11:54:20;;;;;;;2.90;0.80;;;26.20;40.90;;;;;;5043271;28;20021;-73
2021/09/30 11:56:56;;;;;;;2.03;0.63;;;26.30;40.90;;;;;;5042605;28;20379;-73
2021/09/30 11:59:25;;;;;;;2.33;0.80;;;26.30;41.30;;;;;;5043798;28;20049;-73
2021/09/30 12:01:53;;;;;;;5.32;1.00;;;26.30;41.20;;;;;;5040192;28;20060;-72
2021/09/30 12:04:51;;;;;;;3.58;1.00;;;26.30;40.90;;;;;;5039356;28;20471;-73
2021/09/30 12:07:24;;;;;;;3.80;1.10;;;26.40;40.60;;;;;;5039035;28;20362;-73
2021/09/30 12:09:53;;;;;;;2.97;0.80;;;26.40;40.30;;;;;;5041914;28;20500;-73
2021/09/30 12:12:31;;;;;;;5.10;1.23;;;26.40;40.50;;;;;;5045484;28;20024;-73
2021/09/30 12:14:57;;;;;;;3.53;1.50;;;26.40;40.40;;;;;;5042943;28;20022;-73
2021/09/30 12:17:32;;;;;;;2.80;0.80;;;26.50;40.50;;;;;;5044390;28;20377;-73
2021/09/30 12:20:00;;;;;;;3.33;1.08;;;26.50;40.20;;;;;;5040869;28;20577;-73
2021/09/30 12:22:38;;;;;;;6.97;1.63;;;26.50;40.20;;;;;;5043594;28;20036;-72
2021/09/30 12:25:17;;;;;;;3.25;1.00;;;26.50;40.00;;;;;;5045808;28;20499;-73
2021/09/30 12:27:47;;;;;;;2.78;0.80;;;26.60;39.80;;;;;;5040638;28;20573;-73
2021/09/30 12:30:19;;;;;;;4.13;1.25;;;26.60;40.30;;;;;;5046179;28;20029;-73
2021/09/30 12:32:51;;;;;;;2.72;1.00;;;26.60;40.30;;;;;;5042299;28;20029;-73
2021/09/30 12:35:20;;;;;;;4.60;1.10;;;26.70;40.20;;;;;;5046837;28;20495;-73
2021/09/30 12:37:58;;;;;;;8.95;1.10;;;26.70;40.40;;;;;;5039704;28;20162;-73
2021/09/30 12:40:36;;;;;;;2.70;0.90;;;26.70;40.30;;;;;;5044607;28;20380;-73
2021/09/30 12:43:10;;;;;;;4.88;0.80;;;26.70;40.40;;;;;;5041859;28;20037;-73
2021/09/30 12:45:43;;;;;;;6.78;1.13;;;26.70;40.40;;;;;;5039679;28;20014;-73
2021/09/30 12:48:17;;;;;;;3.70;1.05;;;26.70;40.60;;;;;;5045186;28;20017;-73
2021/09/30 12:50:47;;;;;;;2.90;0.70;;;26.60;40.20;;;;;;5037888;28;20018;-74
2021/09/30 12:53:16;;;;;;;6.50;1.00;;;26.60;40.40;;;;;;5045001;28;20112;-73
2021/09/30 12:55:44;;;;;;;6.10;1.55;;;26.60;40.60;;;;;;5040697;28;20071;-73
2021/09/30 12:58:41;;;;;;;4.95;1.45;;;26.60;40.60;;;;;;5042995;28;20553;-73
2021/09/30 13:01:36;;;;;;;6.85;1.10;;;26.50;40.50;;;;;;5039994;28;20140;-73
2021/09/30 13:04:23;;;;;;;6.93;1.60;;;26.50;41.00;;;;;;5041184;28;20033;-73
2021/09/30 13:07:05;;;;;;;5.43;1.10;;;26.50;40.60;;;;;;5041226;28;20029;-73
2021/09/30 13:09:35;;;;;;;5.10;0.98;;;26.60;40.30;;;;;;5041485;28;20052;-72
2021/09/30 13:12:02;;;;;;;2.05;0.90;;;26.70;40.40;;;;;;5039700;28;20366;-72
2021/09/30 13:14:36;;;;;;;3.05;0.73;;;26.70;40.20;;;;;;5042109;28;20090;-72
2021/09/30 13:17:15;;;;;;;3.65;1.20;;;26.70;40.30;;;;;;5041506;28;20029;-73
2021/09/30 13:19:51;;;;;;;3.45;0.95;;;26.70;40.30;;;;;;5037549;28;20022;-72
2021/09/30 13:22:33;;;;;;;6.50;1.52;;;26.70;40.20;;;;;;5043546;28;20496;-72
2021/09/30 13:25:04;;;;;;;2.95;1.10;;;26.70;40.40;;;;;;5043141;28;20025;-73
2021/09/30 13:27:35;;;;;;;2.65;1.20;;;26.60;40.30;;;;;;5039516;28;20017;-73
2021/09/30 13:30:06;;;;;;;3.45;1.13;;;26.60;40.30;;;;;;5040453;28;20056;-73
2021/09/30 13:32:34;;;;;;;1.45;1.27;;;26.60;40.60;;;;;;5041165;28;20013;-73
2021/09/30 13:35:01;;;;;;;5.55;1.27;;;26.50;40.40;;;;;;5044422;28;20017;-73
2021/09/30 13:37:28;;;;;;;5.20;1.30;;;26.60;40.70;;;;;;5039486;28;20027;-73
2021/09/30 13:40:00;;;;;;;7.50;1.50;;;26.60;41.00;;;;;;5042420;28;20057;-73
2021/09/30 13:42:30;;;;;;;8.05;1.08;;;26.50;41.00;;;;;;5043888;28;20025;-73
2021/09/30 13:44:57;;;;;;;7.07;1.70;;;26.50;40.60;;;;;;5045004;28;20033;-73
2021/09/30 13:47:25;;;;;;;7.55;1.42;;;26.50;41.10;;;;;;5040656;28;20098;-73
2021/09/30 13:49:52;;;;;;;3.80;1.00;;;26.40;41.30;;;;;;5041553;28;20020;-73
2021/09/30 13:52:19;;;;;;;4.50;1.23;;;26.40;41.20;;;;;;5042735;28;20031;-73
2021/09/30 13:54:45;;;;;;;2.30;1.20;;;26.40;41.40;;;;;;5040394;28;20025;-73
2021/09/30 13:57:12;;;;;;;3.33;1.55;;;26.40;42.30;;;;;;5045610;28;20387;-73
2021/09/30 13:59:39;;;;;;;4.22;1.48;;;26.40;42.20;;;;;;5039514;28;20042;-73
2021/09/30 14:02:07;;;;;;;2.15;0.90;;;26.30;41.40;;;;;;5044269;28;20423;-73
2021/09/30 14:04:35;;;;;;;4.95;1.05;;;26.30;42.00;;;;;;5039214;28;20115;-73
2021/09/30 14:07:06;;;;;;;4.18;1.40;;;26.30;42.30;;;;;;5041276;28;20157;-73
2021/09/30 14:09:34;;;;;;;4.43;1.00;;;26.30;42.40;;;;;;5040911;28;20489;-73
2021/09/30 14:12:03;;;;;;;5.18;1.17;;;26.20;42.30;;;;;;5041607;28;20104;-73
2021/09/30 14:14:29;;;;;;;2.83;1.40;;;26.20;42.50;;;;;;5042213;28;20510;-73
2021/09/30 14:16:57;;;;;;;6.63;1.05;;;26.20;42.70;;;;;;5042174;28;20017;-73
2021/09/30 14:19:28;;;;;;;5.82;1.50;;;26.20;43.20;;;;;;5037044;28;20492;-73
2021/09/30 14:21:56;;;;;;;6.22;1.98;;;26.10;43.60;;;;;;5039387;28;20037;-74
2021/09/30 14:24:24;;;;;;;4.65;1.73;;;26.10;44.00;;;;;;5042480;28;20019;-74
2021/09/30 14:26:51;;;;;;;7.95;1.70;;;26.00;44.30;;;;;;5042574;28;20163;-73
2021/09/30 14:29:17;;;;;;;5.43;2.35;;;26.00;44.70;;;;;;5042599;28;20028;-73
2021/09/30 14:31:44;;;;;;;4.43;1.52;;;26.00;45.10;;;;;;5039938;28;20056;-73
2021/09/30 14:34:11;;;;;;;5.40;1.75;;;26.00;45.20;;;;;;5041993;28;20025;-73
2021/09/30 14:36:37;;;;;;;3.67;1.13;;;25.90;45.20;;;;;;5036142;28;20017;-74
2021/09/30 14:39:06;;;;;;;6.45;1.38;;;25.90;45.30;;;;;;5043491;28;20017;-73
2021/09/30 14:41:34;;;;;;;5.45;1.52;;;25.90;45.60;;;;;;5040584;28;20020;-73
2021/09/30 14:44:00;;;;;;;4.82;2.13;;;25.90;46.10;;;;;;5040471;28;20021;-74
2021/09/30 14:46:27;;;;;;;5.28;2.10;;;25.90;46.20;;;;;;5042940;28;20021;-74
2021/09/30 14:48:53;;;;;;;5.95;2.10;;;25.80;46.50;;;;;;5042094;28;20028;-74
2021/09/30 14:51:20;;;;;;;6.93;1.80;;;25.80;46.70;;;;;;5037644;28;20021;-73
2021/09/30 14:53:46;;;;;;;5.30;2.28;;;25.80;46.80;;;;;;5050944;28;20022;-74
2021/09/30 14:56:13;;;;;;;7.22;2.67;;;25.70;46.90;;;;;;5037304;28;20443;-73
2021/09/30 14:58:39;;;;;;;8.02;2.38;;;25.70;47.20;;;;;;5043717;28;20326;-73
2021/09/30 15:01:07;;;;;;;6.07;3.85;;;25.60;47.80;;;;;;5039265;28;20439;-73
2021/09/30 15:03:34;;;;;;;8.05;2.25;;;25.50;47.40;;;;;;5042906;28;20091;-74
2021/09/30 15:06:02;;;;;;;8.50;1.90;;;25.50;47.10;;;;;;5040675;28;20013;-73
2021/09/30 15:08:28;;;;;;;4.68;2.03;;;25.40;46.90;;;;;;5038983;28;20021;-74
2021/09/30 15:10:55;;;;;;;8.00;2.20;;;25.30;47.10;;;;;;5043088;28;20095;-74
2021/09/30 15:13:21;;;;;;;5.07;2.00;;;25.30;47.70;;;;;;5040641;28;20518;-73
2021/09/30 15:15:48;;;;;;;6.60;1.77;;;25.20;48.20;;;;;;5042436;28;20540;-73
2021/09/30 15:18:38;;;;;;;3.90;1.45;;;25.20;48.30;;;;;;5042535;28;20029;-73
2021/09/30 15:21:20;;;;;;;8.43;1.88;;;25.20;48.10;;;;;;5039196;28;20029;-78
2021/09/30 15:23:54;;;;;;;7.75;3.72;;;25.20;48.20;;;;;;5038918;28;20048;-74
2021/09/30 15:26:21;;;;;;;5.25;2.22;;;25.10;48.90;;;;;;5044373;28;20025;-76
2021/09/30 15:28:48;;;;;;;11.45;3.72;;;25.00;49.20;;;;;;5042527;28;20021;-74
2021/09/30 15:31:16;;;;;;;11.98;3.55;;;24.90;49.60;;;;;;5038043;28;20438;-76
2021/09/30 15:33:42;;;;;;;10.63;3.08;;;24.80;50.60;;;;;;5040642;28;20496;-74
2021/09/30 15:36:09;;;;;;;7.78;3.22;;;24.70;51.50;;;;;;5042760;28;20036;-74
2021/09/30 15:38:37;;;;;;;13.57;3.75;;;24.70;52.30;;;;;;5040296;28;20362;-74
2021/09/30 15:41:04;;;;;;;9.75;3.10;;;24.60;53.00;;;;;;5041017;28;20021;-76
2021/09/30 15:43:32;;;;;;;12.10;2.70;;;24.50;53.50;;;;;;5038720;28;20037;-73
2021/09/30 15:46:04;;;;;;;10.32;3.10;;;24.40;54.10;;;;;;5044481;28;20168;-73
2021/09/30 15:48:31;;;;;;;14.90;3.70;;;24.40;54.40;;;;;;5045692;28;20495;-74
2021/09/30 15:50:59;;;;;;;16.77;4.32;;;24.30;54.70;;;;;;5042778;28;20017;-76
2021/09/30 15:53:25;;;;;;;14.63;4.97;;;24.20;55.10;;;;;;5047558;28;20032;-76
2021/09/30 15:55:52;;;;;;;18.00;3.72;;;24.10;55.80;;;;;;5042076;28;20066;-76